createdAt,value
2024-03-02T00:00:25.419Z,9.457194
2024-03-02T00:01:25.466Z,9.457185
2024-03-02T00:02:25.382Z,9.457246
2024-03-02T00:03:25.412Z,9.457302
2024-03-02T00:04:25.379Z,9.457315
2024-03-02T00:05:25.357Z,9.457202
2024-03-02T00:06:25.356Z,9.457319
2024-03-02T00:07:25.323Z,9.457302
2024-03-02T00:08:25.430Z,9.457221
2024-03-02T00:09:25.393Z,9.457312
2024-03-02T00:10:25.305Z,9.457305
2024-03-02T00:11:25.314Z,9.457262
2024-03-02T00:12:25.305Z,9.457410
2024-03-02T00:13:25.345Z,9.457198
2024-03-02T00:14:25.303Z,9.457253
2024-03-02T00:15:25.288Z,9.457233
2024-03-02T00:16:25.268Z,9.457314
2024-03-02T00:17:25.225Z,9.457301
2024-03-02T00:18:25.282Z,9.457247
2024-03-02T00:19:25.204Z,9.457199
2024-03-02T00:20:25.200Z,9.457263
2024-03-02T00:21:25.195Z,9.457220
2024-03-02T00:22:25.169Z,9.457271
2024-03-02T00:23:25.233Z,9.457274
2024-03-02T00:24:25.165Z,9.457365
2024-03-02T00:25:25.149Z,9.457314
2024-03-02T00:26:25.139Z,9.457267
2024-03-02T00:27:25.164Z,9.457232
2024-03-02T00:28:25.247Z,9.457226
2024-03-02T00:29:25.118Z,9.457326
2024-03-02T00:30:25.114Z,9.457222
2024-03-02T00:31:25.089Z,9.457279
2024-03-02T00:32:25.091Z,9.457282
2024-03-02T00:33:25.128Z,9.457306
2024-03-02T00:34:25.062Z,9.457301
2024-03-02T00:35:25.138Z,9.457150
2024-03-02T00:36:25.051Z,9.457366
2024-03-02T00:37:25.038Z,9.457346
2024-03-02T00:38:25.039Z,9.457355
2024-03-02T00:39:25.053Z,9.457249
2024-03-02T00:40:24.991Z,9.457231
2024-03-02T00:41:25.048Z,9.457239
2024-03-02T00:42:25.997Z,9.457231
2024-03-02T00:43:24.967Z,9.457264
2024-03-02T00:44:24.950Z,9.457254
2024-03-02T00:45:24.962Z,9.457393
2024-03-02T00:46:24.948Z,9.457961
2024-03-02T00:47:24.961Z,9.457936
2024-03-02T00:48:24.967Z,9.457863
2024-03-02T00:49:24.929Z,9.457345
2024-03-02T00:50:30.668Z,9.457357
2024-03-02T00:51:26.938Z,9.457067
2024-03-02T00:52:24.926Z,9.457026
2024-03-02T00:53:24.881Z,9.456913
2024-03-02T00:54:25.056Z,9.456833
2024-03-02T00:55:24.897Z,9.457022
2024-03-02T00:56:24.881Z,9.457089
2024-03-02T00:57:24.847Z,9.457259
2024-03-02T00:58:24.827Z,9.456949
2024-03-02T00:59:24.996Z,9.456749
2024-03-02T01:00:24.911Z,9.456890
2024-03-02T01:01:24.970Z,9.457007
2024-03-02T01:02:24.775Z,9.457077
2024-03-02T01:03:24.777Z,9.457038
2024-03-02T01:04:24.765Z,9.456935
2024-03-02T01:05:24.768Z,9.457007
2024-03-02T01:06:24.889Z,9.457117
2024-03-02T01:07:24.734Z,9.457403
2024-03-02T01:08:24.720Z,9.457220
2024-03-02T01:09:24.732Z,9.457189
2024-03-02T01:10:24.726Z,9.457182
2024-03-02T01:11:24.961Z,9.457125
2024-03-02T01:12:24.742Z,9.457229
2024-03-02T01:13:24.677Z,9.457059
2024-03-02T01:14:24.662Z,9.457010
2024-03-02T01:15:24.660Z,9.456898
2024-03-02T01:16:24.621Z,9.457015
2024-03-02T01:17:24.627Z,9.457086
2024-03-02T01:18:24.686Z,9.457047
2024-03-02T01:19:25.445Z,9.457104
2024-03-02T01:20:24.596Z,9.457092
2024-03-02T01:21:24.598Z,9.457205
2024-03-02T01:22:24.566Z,9.457223
2024-03-02T01:23:24.599Z,9.457227
2024-03-02T01:24:24.589Z,9.457213
2024-03-02T01:25:24.533Z,9.457231
2024-03-02T01:26:24.532Z,9.457327
2024-03-02T01:27:24.544Z,9.457124
2024-03-02T01:28:24.521Z,9.457263
2024-03-02T01:29:24.485Z,9.457273
2024-03-02T01:30:24.496Z,9.456620
2024-03-02T01:31:24.471Z,9.456868
2024-03-02T01:32:24.460Z,9.457092
2024-03-02T01:33:24.543Z,9.457163
2024-03-02T01:34:24.433Z,9.457232
2024-03-02T01:35:24.432Z,9.457151
2024-03-02T01:36:24.452Z,9.457458
2024-03-02T01:37:24.420Z,9.457439
2024-03-02T01:38:24.432Z,9.457252
2024-03-02T01:39:24.409Z,9.457359
2024-03-02T01:40:24.367Z,9.457261
2024-03-02T01:41:24.361Z,9.457365
2024-03-02T01:42:24.379Z,9.457229
2024-03-02T01:43:24.344Z,9.457182
2024-03-02T01:44:24.346Z,9.457073
2024-03-02T01:45:24.395Z,9.457233
2024-03-02T01:46:24.332Z,9.457109
2024-03-02T01:47:25.365Z,9.457118
2024-03-02T01:48:24.294Z,9.457136
2024-03-02T01:49:24.271Z,9.457244
2024-03-02T01:50:24.263Z,9.457285
2024-03-02T01:51:24.310Z,9.457477
2024-03-02T01:52:24.261Z,9.457414
2024-03-02T01:53:24.223Z,9.457425
2024-03-02T01:54:24.606Z,9.457229
2024-03-02T01:55:25.367Z,9.457157
2024-03-02T01:56:24.215Z,9.457094
2024-03-02T01:57:24.250Z,9.457177
2024-03-02T01:58:24.174Z,9.457023
2024-03-02T01:59:24.164Z,9.456985
2024-03-02T02:00:24.157Z,9.457298
2024-03-02T02:01:24.201Z,9.457167
2024-03-02T02:02:24.132Z,9.457180
2024-03-02T02:03:24.149Z,9.457302
2024-03-02T02:04:24.107Z,9.457126
2024-03-02T02:05:24.279Z,9.457274
2024-03-02T02:06:24.123Z,9.457006
2024-03-02T02:07:24.064Z,9.457137
2024-03-02T02:08:24.053Z,9.457061
2024-03-02T02:09:24.108Z,9.457067
2024-03-02T02:10:24.057Z,9.457350
2024-03-02T02:11:24.068Z,9.457161
2024-03-02T02:12:24.061Z,9.457310
2024-03-02T02:13:23.995Z,9.457192
2024-03-02T02:14:23.991Z,9.457456
2024-03-02T02:15:24.078Z,9.457098
2024-03-02T02:16:23.967Z,9.457344
2024-03-02T02:17:23.959Z,9.457280
2024-03-02T02:18:23.965Z,9.457324
2024-03-02T02:19:24.931Z,9.457294
2024-03-02T02:20:23.953Z,9.457257
2024-03-02T02:21:23.922Z,9.457309
2024-03-02T02:22:23.893Z,9.457464
2024-03-02T02:23:23.890Z,9.457296
2024-03-02T02:24:23.909Z,9.457281
2024-03-02T02:25:23.884Z,9.457275
2024-03-02T02:26:23.845Z,9.457235
2024-03-02T02:27:23.843Z,9.457430
2024-03-02T02:28:23.822Z,9.457262
2024-03-02T02:29:23.828Z,9.457548
2024-03-02T02:30:23.831Z,9.457392
2024-03-02T02:31:23.803Z,9.457351
2024-03-02T02:32:23.790Z,9.457651
2024-03-02T02:33:23.826Z,9.457564
2024-03-02T02:34:23.782Z,9.457632
2024-03-02T02:35:23.763Z,9.457278
2024-03-02T02:36:23.753Z,9.457546
2024-03-02T02:37:23.725Z,9.457284
2024-03-02T02:38:23.755Z,9.457309
2024-03-02T02:39:23.750Z,9.456965
2024-03-02T02:40:23.712Z,9.457217
2024-03-02T02:41:23.686Z,9.457216
2024-03-02T02:42:23.690Z,9.457250
2024-03-02T02:43:23.672Z,9.457438
2024-03-02T02:44:23.656Z,9.457355
2024-03-02T02:45:23.672Z,9.457240
2024-03-02T02:46:23.630Z,9.457263
2024-03-02T02:47:23.624Z,9.457272
2024-03-02T02:48:23.667Z,9.457326
2024-03-02T02:49:23.593Z,9.457334
2024-03-02T02:50:23.595Z,9.457255
2024-03-02T02:51:23.605Z,9.457312
2024-03-02T02:52:23.609Z,9.457238
2024-03-02T02:53:23.590Z,9.457280
2024-03-02T02:54:23.568Z,9.457316
2024-03-02T02:55:23.541Z,9.457385
2024-03-02T02:56:23.524Z,9.457421
2024-03-02T02:57:23.587Z,9.457280
2024-03-02T02:58:23.502Z,9.457219
2024-03-02T02:59:23.480Z,9.457281
2024-03-02T03:00:23.496Z,9.457210
2024-03-02T03:01:55.411Z,9.457089
2024-03-02T03:02:23.476Z,9.457140
2024-03-02T03:03:23.463Z,9.457243
2024-03-02T03:04:23.438Z,9.457363
2024-03-02T03:05:23.437Z,9.457302
2024-03-02T03:06:23.426Z,9.457232
2024-03-02T03:07:23.404Z,9.457207
2024-03-02T03:08:23.396Z,9.457171
2024-03-02T03:09:23.417Z,9.457239
2024-03-02T03:10:23.398Z,9.457298
2024-03-02T03:11:23.403Z,9.457259
2024-03-02T03:12:23.432Z,9.457224
2024-03-02T03:13:23.341Z,9.457205
2024-03-02T03:14:23.339Z,9.457215
2024-03-02T03:15:23.383Z,9.457285
2024-03-02T03:16:23.310Z,9.457231
2024-03-02T03:17:23.297Z,9.457175
2024-03-02T03:18:23.284Z,9.457226
2024-03-02T03:19:23.267Z,9.457180
2024-03-02T03:20:23.279Z,9.457257
2024-03-02T03:21:23.313Z,9.457258
2024-03-02T03:22:23.238Z,9.457169
2024-03-02T03:23:23.230Z,9.457161
2024-03-02T03:24:23.270Z,9.457365
2024-03-02T03:25:23.223Z,9.457191
2024-03-02T03:26:23.188Z,9.457215
2024-03-02T03:27:23.192Z,9.457094
2024-03-02T03:28:23.180Z,9.457170
2024-03-02T03:29:23.146Z,9.457190
2024-03-02T03:30:23.182Z,9.457249
2024-03-02T03:31:23.119Z,9.457165
2024-03-02T03:32:23.127Z,9.457084
2024-03-02T03:33:23.133Z,9.457364
2024-03-02T03:34:23.163Z,9.457252
2024-03-02T03:35:23.105Z,9.457211
2024-03-02T03:36:23.098Z,9.457404
2024-03-02T03:37:23.065Z,9.457149
2024-03-02T03:38:23.044Z,9.457154
2024-03-02T03:39:23.074Z,9.456956
2024-03-02T03:40:23.027Z,9.456936
2024-03-02T03:41:23.008Z,9.457080
2024-03-02T03:42:23.030Z,9.457191
2024-03-02T03:43:22.984Z,9.457238
2024-03-02T03:44:22.992Z,9.457133
2024-03-02T03:45:22.968Z,9.457076
2024-03-02T03:46:22.970Z,9.457155
2024-03-02T03:47:22.953Z,9.457134
2024-03-02T03:48:22.982Z,9.457172
2024-03-02T03:49:22.943Z,9.457170
2024-03-02T03:50:22.932Z,9.457148
2024-03-02T03:51:22.915Z,9.457219
2024-03-02T03:52:22.885Z,9.457154
2024-03-02T03:53:22.904Z,9.457188
2024-03-02T03:54:23.912Z,9.457155
2024-03-02T03:55:22.899Z,9.457157
2024-03-02T03:56:22.844Z,9.457158
2024-03-02T03:57:22.886Z,9.457222
2024-03-02T03:58:23.312Z,9.457310
2024-03-02T03:59:23.812Z,9.457155
2024-03-02T04:00:22.817Z,9.457176
2024-03-02T04:01:22.833Z,9.457202
2024-03-02T04:02:22.784Z,9.457269
2024-03-02T04:03:22.820Z,9.457351
2024-03-02T04:04:22.788Z,9.457231
2024-03-02T04:05:22.751Z,9.457211
2024-03-02T04:06:22.776Z,9.457267
2024-03-02T04:07:22.757Z,9.457302
2024-03-02T04:08:22.742Z,9.457307
2024-03-02T04:09:22.741Z,9.457521
2024-03-02T04:10:22.690Z,9.457488
2024-03-02T04:11:22.701Z,9.457193
2024-03-02T04:12:22.729Z,9.457246
2024-03-02T04:13:22.667Z,9.457544
2024-03-02T04:14:22.643Z,9.457597
2024-03-02T04:15:22.676Z,9.457217
2024-03-02T04:16:22.645Z,9.457122
2024-03-02T04:17:22.646Z,9.457154
2024-03-02T04:18:22.638Z,9.457299
2024-03-02T04:19:22.594Z,9.457328
2024-03-02T04:20:22.589Z,9.457211
2024-03-02T04:21:22.680Z,9.457334
2024-03-02T04:22:25.494Z,9.457472
2024-03-02T04:23:22.555Z,9.457523
2024-03-02T04:24:22.621Z,9.457222
2024-03-02T04:25:22.554Z,9.457244
2024-03-02T04:26:22.561Z,9.457419
2024-03-02T04:27:22.533Z,9.457623
2024-03-02T04:28:22.525Z,9.457804
2024-03-02T04:29:22.491Z,9.457850
2024-03-02T04:30:22.500Z,9.457602
2024-03-02T04:31:22.472Z,9.457519
2024-03-02T04:32:22.449Z,9.457455
2024-03-02T04:33:22.517Z,9.457608
2024-03-02T04:34:22.440Z,9.457703
2024-03-02T04:35:22.443Z,9.457702
2024-03-02T04:36:22.476Z,9.457836
2024-03-02T04:37:22.381Z,9.457644
2024-03-02T04:38:23.389Z,9.457505
2024-03-02T04:39:22.401Z,9.457342
2024-03-02T04:40:22.391Z,9.457421
2024-03-02T04:41:22.374Z,9.457448
2024-03-02T04:42:22.984Z,9.457450
2024-03-02T04:43:22.320Z,9.457405
2024-03-02T04:44:22.314Z,9.457428
2024-03-02T04:45:22.367Z,9.457467
2024-03-02T04:46:22.296Z,9.457423
2024-03-02T04:47:22.286Z,9.457454
2024-03-02T04:48:22.333Z,9.457328
2024-03-02T04:49:22.370Z,9.457376
2024-03-02T04:50:22.259Z,9.457309
2024-03-02T04:51:22.297Z,9.457199
2024-03-02T04:52:22.235Z,9.457253
2024-03-02T04:53:22.242Z,9.457355
2024-03-02T04:54:22.285Z,9.457376
2024-03-02T04:55:22.200Z,9.457462
2024-03-02T04:56:22.178Z,9.457415
2024-03-02T04:57:22.198Z,9.457311
2024-03-02T04:58:22.188Z,9.457273
2024-03-02T04:59:22.175Z,9.457287
2024-03-02T05:00:22.140Z,9.457272
2024-03-02T05:01:22.247Z,9.457403
2024-03-02T05:02:22.127Z,9.457338
2024-03-02T05:03:22.151Z,9.457257
2024-03-02T05:04:22.137Z,9.457345
2024-03-02T05:05:22.084Z,9.457279
2024-03-02T05:06:22.063Z,9.457339
2024-03-02T05:07:22.056Z,9.457325
2024-03-02T05:08:22.073Z,9.457379
2024-03-02T05:09:22.064Z,9.457317
2024-03-02T05:10:22.034Z,9.457307
2024-03-02T05:11:22.077Z,9.457207
2024-03-02T05:12:21.990Z,9.457172
2024-03-02T05:13:22.044Z,9.457223
2024-03-02T05:14:21.975Z,9.457169
2024-03-02T05:15:22.000Z,9.457298
2024-03-02T05:16:21.971Z,9.457363
2024-03-02T05:17:21.957Z,9.457194
2024-03-02T05:18:21.977Z,9.457330
2024-03-02T05:19:21.928Z,9.457279
2024-03-02T05:20:21.945Z,9.457233
2024-03-02T05:21:21.940Z,9.457277
2024-03-02T05:22:21.924Z,9.457201
2024-03-02T05:23:21.869Z,9.457151
2024-03-02T05:24:21.877Z,9.457183
2024-03-02T05:25:21.858Z,9.457263
2024-03-02T05:26:21.836Z,9.457100
2024-03-02T05:27:21.857Z,9.457212
2024-03-02T05:28:21.821Z,9.457429
2024-03-02T05:29:21.823Z,9.457374
2024-03-02T05:30:21.846Z,9.457322
2024-03-02T05:31:21.859Z,9.457232
2024-03-02T05:32:21.828Z,9.457254
2024-03-02T05:33:21.792Z,9.457200
2024-03-02T05:34:21.837Z,9.457236
2024-03-02T05:35:21.723Z,9.457231
2024-03-02T05:36:21.778Z,9.457116
2024-03-02T05:37:21.724Z,9.457105
2024-03-02T05:38:21.713Z,9.457257
2024-03-02T05:39:21.729Z,9.457288
2024-03-02T05:40:24.289Z,9.457179
2024-03-02T05:41:22.687Z,9.457160
2024-03-02T05:42:21.671Z,9.457156
2024-03-02T05:43:21.634Z,9.457185
2024-03-02T05:44:21.634Z,9.457265
2024-03-02T05:45:21.644Z,9.457308
2024-03-02T05:46:21.624Z,9.457424
2024-03-02T05:47:21.607Z,9.457239
2024-03-02T05:48:21.616Z,9.457158
2024-03-02T05:49:21.575Z,9.457166
2024-03-02T05:50:21.581Z,9.457059
2024-03-02T05:51:21.600Z,9.457078
2024-03-02T05:52:21.537Z,9.457044
2024-03-02T05:53:21.533Z,9.457063
2024-03-02T05:54:21.563Z,9.457226
2024-03-02T05:55:21.549Z,9.457152
2024-03-02T05:56:21.553Z,9.457095
2024-03-02T05:57:21.503Z,9.457118
2024-03-02T05:58:21.476Z,9.457120
2024-03-02T05:59:21.484Z,9.457171
2024-03-02T06:00:21.507Z,9.457181
2024-03-02T06:01:21.652Z,9.457173
2024-03-02T06:02:21.431Z,9.457206
2024-03-02T06:03:22.486Z,9.457240
2024-03-02T06:04:21.437Z,9.457321
2024-03-02T06:05:21.436Z,9.457173
2024-03-02T06:06:21.400Z,9.457448
2024-03-02T06:07:21.376Z,9.457065
2024-03-02T06:08:21.393Z,9.457199
2024-03-02T06:09:21.484Z,9.457191
2024-03-02T06:10:21.350Z,9.457168
2024-03-02T06:11:21.355Z,9.457157
2024-03-02T06:12:21.386Z,9.457188
2024-03-02T06:13:21.307Z,9.457191
2024-03-02T06:14:21.311Z,9.457231
2024-03-02T06:15:21.316Z,9.457109
2024-03-02T06:16:21.271Z,9.457106
2024-03-02T06:17:21.265Z,9.457230
2024-03-02T06:18:21.291Z,9.457219
2024-03-02T06:19:21.253Z,9.457243
2024-03-02T06:20:21.218Z,9.457307
2024-03-02T06:21:21.236Z,9.457323
2024-03-02T06:22:21.247Z,9.457154
2024-03-02T06:23:21.235Z,9.457271
2024-03-02T06:24:21.223Z,9.457200
2024-03-02T06:25:21.168Z,9.457083
2024-03-02T06:26:23.831Z,9.457245
2024-03-02T06:27:22.164Z,9.457195
2024-03-02T06:28:21.185Z,9.457158
2024-03-02T06:29:21.129Z,9.457170
2024-03-02T06:30:21.145Z,9.457138
2024-03-02T06:31:21.099Z,9.457178
2024-03-02T06:32:21.153Z,9.457224
2024-03-02T06:33:21.127Z,9.457213
2024-03-02T06:34:21.069Z,9.457239
2024-03-02T06:35:21.062Z,9.457351
2024-03-02T06:36:21.099Z,9.457224
2024-03-02T06:37:21.070Z,9.457111
2024-03-02T06:38:21.026Z,9.457192
2024-03-02T06:39:21.037Z,9.457263
2024-03-02T06:40:21.004Z,9.457178
2024-03-02T06:41:21.000Z,9.457188
2024-03-02T06:42:21.014Z,9.457246
2024-03-02T06:43:20.974Z,9.457346
2024-03-02T06:44:20.979Z,9.457191
2024-03-02T06:45:21.008Z,9.457349
2024-03-02T06:46:20.941Z,9.457355
2024-03-02T06:47:20.964Z,9.457318
2024-03-02T06:48:20.980Z,9.457275
2024-03-02T06:49:20.913Z,9.457380
2024-03-02T06:50:20.885Z,9.457209
2024-03-02T06:51:20.943Z,9.457294
2024-03-02T06:52:23.938Z,9.457255
2024-03-02T06:53:21.860Z,9.457226
2024-03-02T06:54:20.873Z,9.457238
2024-03-02T06:55:21.849Z,9.457278
2024-03-02T06:56:20.865Z,9.457207
2024-03-02T06:57:20.881Z,9.457199
2024-03-02T06:58:20.906Z,9.457187
2024-03-02T06:59:20.802Z,9.457300
2024-03-02T07:00:20.834Z,9.457274
2024-03-02T07:01:23.851Z,9.457270
2024-03-02T07:02:20.746Z,9.457062
2024-03-02T07:03:20.823Z,9.457075
2024-03-02T07:04:20.761Z,9.457281
2024-03-02T07:05:20.750Z,9.457290
2024-03-02T07:06:20.839Z,9.457307
2024-03-02T07:07:20.707Z,9.457337
2024-03-02T07:08:20.695Z,9.457239
2024-03-02T07:09:20.695Z,9.457234
2024-03-02T07:10:20.702Z,9.457194
2024-03-02T07:11:20.678Z,9.457194
2024-03-02T07:12:20.709Z,9.457141
2024-03-02T07:13:20.646Z,9.457190
2024-03-02T07:14:20.640Z,9.457269
2024-03-02T07:15:20.660Z,9.457194
2024-03-02T07:16:20.604Z,9.457172
2024-03-02T07:17:20.610Z,9.457213
2024-03-02T07:18:20.641Z,9.457282
2024-03-02T07:19:20.760Z,9.457155
2024-03-02T07:20:20.612Z,9.457191
2024-03-02T07:21:20.602Z,9.457217
2024-03-02T07:22:20.551Z,9.457310
2024-03-02T07:23:20.560Z,9.457242
2024-03-02T07:24:20.656Z,9.457255
2024-03-02T07:27:21.535Z,9.457185
2024-03-02T07:28:20.490Z,9.457358
2024-03-02T07:29:20.495Z,9.457274
2024-03-02T07:30:20.477Z,9.457224
2024-03-02T07:31:20.530Z,9.457234
2024-03-02T07:32:20.434Z,9.457234
2024-03-02T07:33:20.456Z,9.457266
2024-03-02T07:34:20.447Z,9.457326
2024-03-02T07:35:20.416Z,9.457187
2024-03-02T07:36:20.433Z,9.457152
2024-03-02T07:37:20.409Z,9.457142
2024-03-02T07:38:20.417Z,9.457088
2024-03-02T07:39:20.455Z,9.457226
2024-03-02T07:40:20.353Z,9.457189
2024-03-02T07:41:21.360Z,9.457183
2024-03-02T07:42:20.376Z,9.457163
2024-03-02T07:43:20.350Z,9.457109
2024-03-02T07:44:20.362Z,9.457180
2024-03-02T07:45:20.375Z,9.457293
2024-03-02T07:46:20.320Z,9.457307
2024-03-02T07:47:20.301Z,9.457253
2024-03-02T07:48:20.309Z,9.457271
2024-03-02T07:49:20.396Z,9.457396
2024-03-02T07:50:20.284Z,9.457231
2024-03-02T07:51:20.282Z,9.457143
2024-03-02T07:52:20.302Z,9.457123
2024-03-02T07:53:20.259Z,9.457070
2024-03-02T07:54:20.270Z,9.457079
2024-03-02T07:55:20.235Z,9.457123
2024-03-02T07:56:20.212Z,9.457194
2024-03-02T07:57:20.261Z,9.457217
2024-03-02T07:58:20.193Z,9.457341
2024-03-02T07:59:20.173Z,9.457211
2024-03-02T08:00:20.204Z,9.457242
2024-03-02T08:01:20.253Z,9.457257
2024-03-02T08:02:20.154Z,9.457183
2024-03-02T08:03:20.184Z,9.457345
2024-03-02T08:04:20.133Z,9.457429
2024-03-02T08:05:20.129Z,9.457512
2024-03-02T08:06:20.129Z,9.457553
2024-03-02T08:07:20.103Z,9.457271
2024-03-02T08:08:20.078Z,9.457277
2024-03-02T08:09:20.106Z,9.457375
2024-03-02T08:10:20.061Z,9.457313
2024-03-02T08:11:20.087Z,9.457245
2024-03-02T08:12:20.104Z,9.457252
2024-03-02T08:13:20.051Z,9.457370
2024-03-02T08:14:20.060Z,9.457223
2024-03-02T08:15:20.077Z,9.457435
2024-03-02T08:16:20.022Z,9.457244
2024-03-02T08:17:20.065Z,9.457207
2024-03-02T08:18:20.100Z,9.457256
2024-03-02T08:19:19.978Z,9.457430
2024-03-02T08:20:19.994Z,9.457259
2024-03-02T08:21:19.984Z,9.457255
2024-03-02T08:22:19.972Z,9.457135
2024-03-02T08:23:19.938Z,9.457171
2024-03-02T08:24:19.995Z,9.457058
2024-03-02T08:25:19.922Z,9.456856
2024-03-02T08:26:20.448Z,9.456985
2024-03-02T08:27:19.925Z,9.457230
2024-03-02T08:28:19.945Z,9.457323
2024-03-02T08:29:20.000Z,9.457282
2024-03-02T08:30:20.913Z,9.457343
2024-03-02T08:31:19.890Z,9.457627
2024-03-02T08:32:19.837Z,9.457479
2024-03-02T08:33:19.968Z,9.457348
2024-03-02T08:34:19.886Z,9.457340
2024-03-02T08:35:19.853Z,9.457216
2024-03-02T08:36:19.832Z,9.457213
2024-03-02T08:37:19.818Z,9.457111
2024-03-02T08:38:19.832Z,9.457218
2024-03-02T08:39:19.808Z,9.457346
2024-03-02T08:40:19.911Z,9.457155
2024-03-02T08:41:19.793Z,9.457103
2024-03-02T08:42:19.794Z,9.457074
2024-03-02T08:43:19.747Z,9.457081
2024-03-02T08:44:19.753Z,9.457302
2024-03-02T08:45:19.762Z,9.457209
2024-03-02T08:46:19.717Z,9.457043
2024-03-02T08:47:19.776Z,9.457360
2024-03-02T08:48:19.730Z,9.457208
2024-03-02T08:49:19.715Z,9.457093
2024-03-02T08:50:19.679Z,9.457001
2024-03-02T08:51:19.697Z,9.457247
2024-03-02T08:52:19.669Z,9.457158
2024-03-02T08:53:19.858Z,9.457205
2024-03-02T08:54:19.673Z,9.457253
2024-03-02T08:55:19.627Z,9.457222
2024-03-02T08:56:19.629Z,9.457262
2024-03-02T08:57:19.647Z,9.457324
2024-03-02T08:58:19.615Z,9.457260
2024-03-02T08:59:19.639Z,9.457195
2024-03-02T09:00:19.611Z,9.457147
2024-03-02T09:01:19.650Z,9.457163
2024-03-02T09:02:20.359Z,9.457273
2024-03-02T09:03:19.600Z,9.457230
2024-03-02T09:04:19.539Z,9.457220
2024-03-02T09:05:19.537Z,9.457337
2024-03-02T09:06:19.532Z,9.457300
2024-03-02T09:07:19.537Z,9.457282
2024-03-02T09:08:19.521Z,9.457232
2024-03-02T09:09:19.505Z,9.457312
2024-03-02T09:10:19.504Z,9.457241
2024-03-02T09:11:19.473Z,9.457241
2024-03-02T09:12:19.509Z,9.457153
2024-03-02T09:13:19.497Z,9.457220
2024-03-02T09:14:19.448Z,9.457335
2024-03-02T09:15:19.434Z,9.457210
2024-03-02T09:16:19.455Z,9.457217
2024-03-02T09:17:19.435Z,9.457349
2024-03-02T09:18:19.563Z,9.457333
2024-03-02T09:19:19.392Z,9.457302
2024-03-02T09:20:19.387Z,9.457257
2024-03-02T09:21:19.404Z,9.457313
2024-03-02T09:22:19.389Z,9.457231
2024-03-02T09:23:19.368Z,9.457137
2024-03-02T09:24:19.344Z,9.457192
2024-03-02T09:25:19.345Z,9.457248
2024-03-02T09:26:19.361Z,9.457253
2024-03-02T09:27:19.366Z,9.457263
2024-03-02T09:28:19.310Z,9.457277
2024-03-02T09:29:19.353Z,9.457222
2024-03-02T09:30:19.302Z,9.457259
2024-03-02T09:31:19.325Z,9.457244
2024-03-02T09:32:19.274Z,9.457233
2024-03-02T09:33:19.437Z,9.457255
2024-03-02T09:34:19.382Z,9.457333
2024-03-02T09:35:19.288Z,9.457233
2024-03-02T09:36:19.331Z,9.457309
2024-03-02T09:37:19.220Z,9.457367
2024-03-02T09:38:19.237Z,9.457262
2024-03-02T09:39:19.265Z,9.457233
2024-03-02T09:40:19.209Z,9.457253
2024-03-02T09:41:19.214Z,9.457335
2024-03-02T09:42:19.675Z,9.457113
2024-03-02T09:43:19.189Z,9.457098
2024-03-02T09:44:19.178Z,9.457174
2024-03-02T09:45:19.245Z,9.457132
2024-03-02T09:46:19.146Z,9.457211
2024-03-02T09:47:19.122Z,9.456838
2024-03-02T09:48:19.147Z,9.456990
2024-03-02T09:49:19.094Z,9.457152
2024-03-02T09:50:19.138Z,9.457203
2024-03-02T09:51:19.252Z,9.457130
2024-03-02T09:52:19.103Z,9.457135
2024-03-02T09:53:19.057Z,9.457287
2024-03-02T09:54:22.680Z,9.457224
2024-03-02T09:55:19.150Z,9.457121
2024-03-02T09:56:19.089Z,9.457262
2024-03-02T09:57:19.028Z,9.457106
2024-03-02T09:58:19.015Z,9.457107
2024-03-02T09:59:19.133Z,9.457004
2024-03-02T10:00:19.001Z,9.457291
2024-03-02T10:01:19.089Z,9.457052
2024-03-02T10:02:18.976Z,9.457078
2024-03-02T10:03:50.932Z,9.457110
2024-03-02T10:04:18.967Z,9.457178
2024-03-02T10:05:18.943Z,9.457227
2024-03-02T10:06:18.935Z,9.457301
2024-03-02T10:07:18.944Z,9.457412
2024-03-02T10:08:18.915Z,9.457265
2024-03-02T10:09:18.922Z,9.457195
2024-03-02T10:10:18.901Z,9.457146
2024-03-02T10:11:18.960Z,9.457159
2024-03-02T10:12:18.915Z,9.457239
2024-03-02T10:13:18.918Z,9.457290
2024-03-02T10:14:18.872Z,9.457416
2024-03-02T10:15:18.847Z,9.457215
2024-03-02T10:16:18.837Z,9.457198
2024-03-02T10:17:18.864Z,9.457180
2024-03-02T10:18:18.835Z,9.457269
2024-03-02T10:19:18.849Z,9.457290
2024-03-02T10:20:18.797Z,9.457449
2024-03-02T10:21:18.790Z,9.457413
2024-03-02T10:22:18.780Z,9.457328
2024-03-02T10:23:18.837Z,9.457237
2024-03-02T10:24:55.157Z,9.457203
2024-03-02T10:25:31.534Z,9.457271
2024-03-02T10:26:20.797Z,9.457383
2024-03-02T10:27:18.753Z,9.457510
2024-03-02T10:28:18.734Z,9.457510
2024-03-02T10:29:18.708Z,9.457281
2024-03-02T10:30:18.696Z,9.457197
2024-03-02T10:31:18.680Z,9.457298
2024-03-02T10:32:18.735Z,9.457417
2024-03-02T10:33:18.676Z,9.457369
2024-03-02T10:34:18.654Z,9.457439
2024-03-02T10:35:19.490Z,9.457347
2024-03-02T10:36:18.631Z,9.457273
2024-03-02T10:37:18.865Z,9.457383
2024-03-02T10:38:18.600Z,9.457405
2024-03-02T10:39:18.606Z,9.457302
2024-03-02T10:40:18.609Z,9.457182
2024-03-02T10:41:18.599Z,9.457293
2024-03-02T10:42:18.593Z,9.457377
2024-03-02T10:43:18.550Z,9.457208
2024-03-02T10:44:18.565Z,9.457112
2024-03-02T10:45:18.555Z,9.457026
2024-03-02T10:46:18.554Z,9.457175
2024-03-02T10:47:18.524Z,9.457134
2024-03-02T10:48:18.505Z,9.457114
2024-03-02T10:49:18.598Z,9.457169
2024-03-02T10:50:18.507Z,9.457229
2024-03-02T10:51:18.510Z,9.457285
2024-03-02T10:52:18.469Z,9.457179
2024-03-02T10:53:18.454Z,9.457217
2024-03-02T10:54:18.479Z,9.457336
2024-03-02T10:55:18.665Z,9.457199
2024-03-02T10:56:18.481Z,9.457211
2024-03-02T10:57:18.416Z,9.457216
2024-03-02T10:58:18.520Z,9.457273
2024-03-02T10:59:18.393Z,9.457338
2024-03-02T11:00:18.451Z,9.457279
2024-03-02T11:01:18.485Z,9.457157
2024-03-02T11:02:18.364Z,9.457313
2024-03-02T11:03:18.356Z,9.457242
2024-03-02T11:04:18.346Z,9.457214
2024-03-02T11:05:18.355Z,9.457295
2024-03-02T11:06:18.334Z,9.457103
2024-03-02T11:07:18.313Z,9.457129
2024-03-02T11:08:18.324Z,9.457154
2024-03-02T11:09:18.298Z,9.457067
2024-03-02T11:10:18.340Z,9.457254
2024-03-02T11:11:18.333Z,9.457269
2024-03-02T11:12:18.273Z,9.457226
2024-03-02T11:13:18.265Z,9.457315
2024-03-02T11:14:18.269Z,9.457268
2024-03-02T11:15:18.259Z,9.457234
2024-03-02T11:16:18.230Z,9.457273
2024-03-02T11:17:18.221Z,9.457253
2024-03-02T11:18:18.271Z,9.457352
2024-03-02T11:19:18.411Z,9.457273
2024-03-02T11:20:18.208Z,9.457392
2024-03-02T11:21:18.189Z,9.457245
2024-03-02T11:22:18.165Z,9.457211
2024-03-02T11:23:18.161Z,9.457202
2024-03-02T11:24:18.223Z,9.457190
2024-03-02T11:25:18.199Z,9.457303
2024-03-02T11:26:18.159Z,9.457235
2024-03-02T11:27:18.117Z,9.457212
2024-03-02T11:28:18.146Z,9.457241
2024-03-02T11:29:18.117Z,9.457215
2024-03-02T11:30:18.089Z,9.457245
2024-03-02T11:31:18.158Z,9.457252
2024-03-02T11:32:18.064Z,9.457318
2024-03-02T11:33:18.188Z,9.457227
2024-03-02T11:34:19.014Z,9.457131
2024-03-02T11:35:18.067Z,9.457222
2024-03-02T11:36:18.046Z,9.457216
2024-03-02T11:37:18.020Z,9.457212
2024-03-02T11:38:18.031Z,9.457284
2024-03-02T11:39:18.033Z,9.457287
2024-03-02T11:40:17.996Z,9.457203
2024-03-02T11:41:18.009Z,9.457266
2024-03-02T11:42:17.964Z,9.457301
2024-03-02T11:43:18.002Z,9.457296
2024-03-02T11:44:17.967Z,9.457385
2024-03-02T11:45:17.936Z,9.457332
2024-03-02T11:46:17.986Z,9.457290